sensor_id;sensor_type;location;lat;lon;timestamp;P1;durP1;ratioP1;P2;durP2;ratioP2
26963;SDS011;14521;48.148;-1.656;2023-07-31T00:02:41;3.00;;;2.03;;
26963;SDS011;14521;48.148;-1.656;2023-07-31T00:06:04;3.63;;;2.15;;
26963;SDS011;14521;48.148;-1.656;2023-07-31T00:09:26;2.72;;;2.10;;
26963;SDS011;14521;48.148;-1.656;2023-07-31T00:12:48;5.40;;;1.90;;
26963;SDS011;14521;48.148;-1.656;2023-07-31T00:16:10;5.38;;;2.17;;
26963;SDS011;14521;48.148;-1.656;2023-07-31T00:19:33;4.80;;;2.00;;
26963;SDS011;14521;48.148;-1.656;2023-07-31T00:22:55;4.82;;;1.73;;
26963;SDS011;14521;48.148;-1.656;2023-07-31T00:26:17;4.25;;;1.98;;
26963;SDS011;14521;48.148;-1.656;2023-07-31T00:29:40;6.40;;;2.40;;
26963;SDS011;14521;48.148;-1.656;2023-07-31T00:33:02;3.75;;;2.42;;
26963;SDS011;14521;48.148;-1.656;2023-07-31T00:36:24;3.65;;;2.17;;
26963;SDS011;14521;48.148;-1.656;2023-07-31T00:39:47;3.55;;;1.85;;
26963;SDS011;14521;48.148;-1.656;2023-07-31T00:43:09;5.85;;;1.95;;
26963;SDS011;14521;48.148;-1.656;2023-07-31T00:46:31;7.05;;;2.53;;
26963;SDS011;14521;48.148;-1.656;2023-07-31T00:49:53;3.25;;;2.22;;
26963;SDS011;14521;48.148;-1.656;2023-07-31T00:53:16;5.20;;;2.38;;
26963;SDS011;14521;48.148;-1.656;2023-07-31T00:56:38;2.50;;;2.30;;
26963;SDS011;14521;48.148;-1.656;2023-07-31T01:00:03;3.70;;;2.10;;
26963;SDS011;14521;48.148;-1.656;2023-07-31T01:03:26;4.03;;;2.70;;
26963;SDS011;14521;48.148;-1.656;2023-07-31T01:06:51;5.47;;;2.45;;
26963;SDS011;14521;48.148;-1.656;2023-07-31T01:10:21;3.58;;;2.20;;
26963;SDS011;14521;48.148;-1.656;2023-07-31T01:13:48;4.35;;;2.10;;
26963;SDS011;14521;48.148;-1.656;2023-07-31T01:17:10;6.40;;;2.20;;
26963;SDS011;14521;48.148;-1.656;2023-07-31T01:20:32;4.90;;;2.60;;
26963;SDS011;14521;48.148;-1.656;2023-07-31T01:27:53;8.93;;;2.67;;
26963;SDS011;14521;48.148;-1.656;2023-07-31T01:31:23;7.10;;;2.53;;
26963;SDS011;14521;48.148;-1.656;2023-07-31T01:34:48;3.38;;;2.17;;
26963;SDS011;14521;48.148;-1.656;2023-07-31T01:38:10;6.28;;;2.22;;
26963;SDS011;14521;48.148;-1.656;2023-07-31T01:41:33;5.45;;;2.33;;
26963;SDS011;14521;48.148;-1.656;2023-07-31T01:44:55;4.90;;;2.15;;
26963;SDS011;14521;48.148;-1.656;2023-07-31T01:48:18;4.88;;;2.17;;
26963;SDS011;14521;48.148;-1.656;2023-07-31T01:51:40;2.40;;;1.90;;
26963;SDS011;14521;48.148;-1.656;2023-07-31T01:55:02;5.57;;;2.58;;
26963;SDS011;14521;48.148;-1.656;2023-07-31T01:58:25;3.70;;;2.55;;
26963;SDS011;14521;48.148;-1.656;2023-07-31T02:01:47;4.00;;;2.08;;
26963;SDS011;14521;48.148;-1.656;2023-07-31T02:05:10;4.50;;;2.20;;
26963;SDS011;14521;48.148;-1.656;2023-07-31T02:08:32;4.78;;;2.17;;
26963;SDS011;14521;48.148;-1.656;2023-07-31T02:11:55;3.90;;;2.13;;
26963;SDS011;14521;48.148;-1.656;2023-07-31T02:15:17;4.25;;;2.10;;
26963;SDS011;14521;48.148;-1.656;2023-07-31T02:18:40;4.47;;;2.30;;
26963;SDS011;14521;48.148;-1.656;2023-07-31T02:22:02;4.20;;;2.50;;
26963;SDS011;14521;48.148;-1.656;2023-07-31T02:25:25;8.98;;;2.40;;
26963;SDS011;14521;48.148;-1.656;2023-07-31T02:28:47;7.15;;;2.38;;
26963;SDS011;14521;48.148;-1.656;2023-07-31T02:32:09;3.15;;;2.17;;
26963;SDS011;14521;48.148;-1.656;2023-07-31T02:35:32;3.03;;;1.80;;
26963;SDS011;14521;48.148;-1.656;2023-07-31T02:38:54;5.47;;;2.25;;
26963;SDS011;14521;48.148;-1.656;2023-07-31T02:42:17;3.20;;;2.13;;
26963;SDS011;14521;48.148;-1.656;2023-07-31T02:45:39;2.92;;;2.35;;
26963;SDS011;14521;48.148;-1.656;2023-07-31T02:49:01;6.55;;;2.42;;
26963;SDS011;14521;48.148;-1.656;2023-07-31T02:52:23;4.63;;;2.10;;
26963;SDS011;14521;48.148;-1.656;2023-07-31T02:55:46;3.83;;;2.08;;
26963;SDS011;14521;48.148;-1.656;2023-07-31T02:59:08;3.33;;;2.47;;
26963;SDS011;14521;48.148;-1.656;2023-07-31T03:02:30;5.22;;;2.05;;
26963;SDS011;14521;48.148;-1.656;2023-07-31T03:05:53;4.22;;;2.30;;
26963;SDS011;14521;48.148;-1.656;2023-07-31T03:09:15;7.25;;;2.10;;
26963;SDS011;14521;48.148;-1.656;2023-07-31T03:12:38;6.07;;;2.60;;
26963;SDS011;14521;48.148;-1.656;2023-07-31T03:16:01;4.10;;;1.90;;
26963;SDS011;14521;48.148;-1.656;2023-07-31T03:19:24;8.73;;;2.85;;
26963;SDS011;14521;48.148;-1.656;2023-07-31T03:22:46;4.05;;;2.35;;
26963;SDS011;14521;48.148;-1.656;2023-07-31T03:26:08;3.80;;;2.22;;
26963;SDS011;14521;48.148;-1.656;2023-07-31T03:29:31;5.20;;;2.92;;
26963;SDS011;14521;48.148;-1.656;2023-07-31T03:32:53;3.92;;;2.28;;
26963;SDS011;14521;48.148;-1.656;2023-07-31T03:36:17;3.20;;;2.15;;
26963;SDS011;14521;48.148;-1.656;2023-07-31T03:39:39;4.65;;;2.42;;
26963;SDS011;14521;48.148;-1.656;2023-07-31T03:43:01;4.22;;;2.28;;
26963;SDS011;14521;48.148;-1.656;2023-07-31T03:46:24;5.45;;;2.30;;
26963;SDS011;14521;48.148;-1.656;2023-07-31T03:49:46;3.33;;;2.17;;
26963;SDS011;14521;48.148;-1.656;2023-07-31T03:53:09;4.82;;;2.10;;
26963;SDS011;14521;48.148;-1.656;2023-07-31T03:56:32;5.60;;;2.22;;
26963;SDS011;14521;48.148;-1.656;2023-07-31T03:59:57;6.32;;;2.20;;
26963;SDS011;14521;48.148;-1.656;2023-07-31T04:03:19;6.93;;;2.50;;
26963;SDS011;14521;48.148;-1.656;2023-07-31T04:06:41;7.40;;;2.60;;
26963;SDS011;14521;48.148;-1.656;2023-07-31T04:10:04;5.45;;;2.40;;
26963;SDS011;14521;48.148;-1.656;2023-07-31T04:13:26;9.15;;;2.92;;
26963;SDS011;14521;48.148;-1.656;2023-07-31T04:16:50;4.47;;;2.37;;
26963;SDS011;14521;48.148;-1.656;2023-07-31T04:20:14;3.85;;;2.22;;
26963;SDS011;14521;48.148;-1.656;2023-07-31T04:23:36;6.43;;;2.60;;
26963;SDS011;14521;48.148;-1.656;2023-07-31T04:26:58;3.65;;;2.15;;
26963;SDS011;14521;48.148;-1.656;2023-07-31T04:30:20;7.53;;;2.38;;
26963;SDS011;14521;48.148;-1.656;2023-07-31T04:33:43;6.30;;;2.45;;
26963;SDS011;14521;48.148;-1.656;2023-07-31T04:37:05;3.75;;;2.30;;
26963;SDS011;14521;48.148;-1.656;2023-07-31T04:40:27;6.72;;;2.50;;
26963;SDS011;14521;48.148;-1.656;2023-07-31T04:43:49;2.97;;;1.90;;
26963;SDS011;14521;48.148;-1.656;2023-07-31T04:47:12;6.25;;;2.30;;
26963;SDS011;14521;48.148;-1.656;2023-07-31T04:50:34;5.15;;;2.33;;
26963;SDS011;14521;48.148;-1.656;2023-07-31T04:53:56;4.45;;;2.20;;
26963;SDS011;14521;48.148;-1.656;2023-07-31T04:57:18;3.75;;;1.85;;
26963;SDS011;14521;48.148;-1.656;2023-07-31T05:00:41;5.55;;;2.50;;
26963;SDS011;14521;48.148;-1.656;2023-07-31T05:04:03;7.13;;;2.50;;
26963;SDS011;14521;48.148;-1.656;2023-07-31T05:07:25;6.70;;;2.33;;
26963;SDS011;14521;48.148;-1.656;2023-07-31T05:10:47;4.35;;;2.17;;
26963;SDS011;14521;48.148;-1.656;2023-07-31T05:14:10;4.22;;;2.25;;
26963;SDS011;14521;48.148;-1.656;2023-07-31T05:17:32;4.45;;;1.90;;
26963;SDS011;14521;48.148;-1.656;2023-07-31T05:20:54;4.60;;;2.20;;
26963;SDS011;14521;48.148;-1.656;2023-07-31T05:24:17;7.15;;;2.25;;
26963;SDS011;14521;48.148;-1.656;2023-07-31T05:27:39;4.85;;;2.10;;
26963;SDS011;14521;48.148;-1.656;2023-07-31T05:31:04;6.90;;;2.10;;
26963;SDS011;14521;48.148;-1.656;2023-07-31T05:34:28;4.20;;;2.10;;
26963;SDS011;14521;48.148;-1.656;2023-07-31T05:37:50;5.00;;;1.95;;
26963;SDS011;14521;48.148;-1.656;2023-07-31T05:41:12;3.13;;;1.95;;
26963;SDS011;14521;48.148;-1.656;2023-07-31T05:44:35;4.50;;;2.15;;
26963;SDS011;14521;48.148;-1.656;2023-07-31T05:47:57;5.07;;;2.05;;
26963;SDS011;14521;48.148;-1.656;2023-07-31T05:51:19;2.75;;;1.83;;
26963;SDS011;14521;48.148;-1.656;2023-07-31T05:54:42;12.20;;;2.97;;
26963;SDS011;14521;48.148;-1.656;2023-07-31T05:58:04;4.88;;;1.90;;
26963;SDS011;14521;48.148;-1.656;2023-07-31T06:01:26;6.90;;;2.20;;
26963;SDS011;14521;48.148;-1.656;2023-07-31T06:04:48;7.13;;;2.33;;
26963;SDS011;14521;48.148;-1.656;2023-07-31T06:08:11;6.22;;;1.67;;
26963;SDS011;14521;48.148;-1.656;2023-07-31T06:11:33;12.75;;;2.42;;
26963;SDS011;14521;48.148;-1.656;2023-07-31T06:14:56;6.75;;;2.13;;
26963;SDS011;14521;48.148;-1.656;2023-07-31T06:18:18;5.75;;;2.00;;
26963;SDS011;14521;48.148;-1.656;2023-07-31T06:21:40;2.53;;;2.15;;
26963;SDS011;14521;48.148;-1.656;2023-07-31T06:25:04;3.13;;;1.83;;
26963;SDS011;14521;48.148;-1.656;2023-07-31T06:28:27;7.50;;;1.70;;
26963;SDS011;14521;48.148;-1.656;2023-07-31T06:31:53;5.03;;;2.00;;
26963;SDS011;14521;48.148;-1.656;2023-07-31T06:35:15;7.97;;;1.58;;
26963;SDS011;14521;48.148;-1.656;2023-07-31T06:38:37;7.70;;;2.38;;
26963;SDS011;14521;48.148;-1.656;2023-07-31T06:42:00;5.90;;;1.67;;
26963;SDS011;14521;48.148;-1.656;2023-07-31T06:45:22;5.55;;;1.90;;
26963;SDS011;14521;48.148;-1.656;2023-07-31T06:48:44;6.45;;;2.05;;
26963;SDS011;14521;48.148;-1.656;2023-07-31T06:52:07;3.50;;;1.83;;
26963;SDS011;14521;48.148;-1.656;2023-07-31T06:55:29;6.05;;;1.80;;
26963;SDS011;14521;48.148;-1.656;2023-07-31T06:58:51;5.43;;;1.73;;
26963;SDS011;14521;48.148;-1.656;2023-07-31T07:02:13;5.70;;;1.75;;
26963;SDS011;14521;48.148;-1.656;2023-07-31T07:05:36;2.75;;;1.80;;
26963;SDS011;14521;48.148;-1.656;2023-07-31T07:08:58;4.15;;;1.52;;
26963;SDS011;14521;48.148;-1.656;2023-07-31T07:12:20;6.18;;;1.88;;
26963;SDS011;14521;48.148;-1.656;2023-07-31T07:15:43;2.05;;;1.75;;
26963;SDS011;14521;48.148;-1.656;2023-07-31T07:19:05;6.25;;;2.15;;
26963;SDS011;14521;48.148;-1.656;2023-07-31T07:22:27;2.75;;;1.70;;
26963;SDS011;14521;48.148;-1.656;2023-07-31T07:25:49;5.95;;;1.80;;
26963;SDS011;14521;48.148;-1.656;2023-07-31T07:29:15;6.10;;;2.00;;
26963;SDS011;14521;48.148;-1.656;2023-07-31T07:32:37;4.07;;;1.70;;
26963;SDS011;14521;48.148;-1.656;2023-07-31T07:36:00;4.72;;;1.65;;
26963;SDS011;14521;48.148;-1.656;2023-07-31T07:39:23;1.98;;;1.30;;
26963;SDS011;14521;48.148;-1.656;2023-07-31T07:42:46;3.83;;;2.00;;
26963;SDS011;14521;48.148;-1.656;2023-07-31T07:46:09;6.82;;;1.77;;
26963;SDS011;14521;48.148;-1.656;2023-07-31T07:49:32;5.57;;;1.70;;
26963;SDS011;14521;48.148;-1.656;2023-07-31T07:52:56;6.25;;;1.70;;
26963;SDS011;14521;48.148;-1.656;2023-07-31T07:56:18;7.65;;;1.50;;
26963;SDS011;14521;48.148;-1.656;2023-07-31T07:59:40;4.47;;;1.83;;
26963;SDS011;14521;48.148;-1.656;2023-07-31T08:03:03;4.63;;;1.65;;
26963;SDS011;14521;48.148;-1.656;2023-07-31T08:06:25;3.35;;;1.70;;
26963;SDS011;14521;48.148;-1.656;2023-07-31T08:09:48;2.33;;;1.33;;
26963;SDS011;14521;48.148;-1.656;2023-07-31T08:13:11;5.78;;;1.58;;
26963;SDS011;14521;48.148;-1.656;2023-07-31T08:16:33;3.85;;;1.85;;
26963;SDS011;14521;48.148;-1.656;2023-07-31T08:19:56;4.32;;;1.60;;
26963;SDS011;14521;48.148;-1.656;2023-07-31T08:23:19;4.93;;;1.80;;
26963;SDS011;14521;48.148;-1.656;2023-07-31T08:26:42;2.35;;;1.55;;
26963;SDS011;14521;48.148;-1.656;2023-07-31T08:30:04;6.05;;;1.38;;
26963;SDS011;14521;48.148;-1.656;2023-07-31T08:33:27;1.50;;;1.20;;
26963;SDS011;14521;48.148;-1.656;2023-07-31T08:36:49;1.98;;;1.33;;
26963;SDS011;14521;48.148;-1.656;2023-07-31T08:40:12;4.05;;;1.38;;
26963;SDS011;14521;48.148;-1.656;2023-07-31T08:43:35;2.85;;;1.50;;
26963;SDS011;14521;48.148;-1.656;2023-07-31T08:46:59;3.17;;;1.60;;
26963;SDS011;14521;48.148;-1.656;2023-07-31T08:50:22;3.17;;;1.40;;
26963;SDS011;14521;48.148;-1.656;2023-07-31T08:53:45;5.30;;;1.50;;
26963;SDS011;14521;48.148;-1.656;2023-07-31T08:57:07;4.72;;;1.50;;
26963;SDS011;14521;48.148;-1.656;2023-07-31T09:00:32;7.13;;;1.65;;
26963;SDS011;14521;48.148;-1.656;2023-07-31T09:03:54;5.18;;;1.20;;
26963;SDS011;14521;48.148;-1.656;2023-07-31T09:07:18;2.60;;;1.30;;
26963;SDS011;14521;48.148;-1.656;2023-07-31T09:10:41;2.80;;;1.50;;
26963;SDS011;14521;48.148;-1.656;2023-07-31T09:14:04;2.13;;;1.27;;
26963;SDS011;14521;48.148;-1.656;2023-07-31T09:17:31;2.20;;;1.60;;
26963;SDS011;14521;48.148;-1.656;2023-07-31T09:21:02;4.97;;;1.63;;
26963;SDS011;14521;48.148;-1.656;2023-07-31T09:24:26;1.45;;;1.30;;
26963;SDS011;14521;48.148;-1.656;2023-07-31T09:28:00;1.95;;;1.30;;
26963;SDS011;14521;48.148;-1.656;2023-07-31T09:31:33;2.72;;;1.15;;
26963;SDS011;14521;48.148;-1.656;2023-07-31T09:35:16;2.80;;;1.20;;
26963;SDS011;14521;48.148;-1.656;2023-07-31T09:38:44;8.52;;;1.55;;
26963;SDS011;14521;48.148;-1.656;2023-07-31T09:42:07;6.30;;;1.63;;
26963;SDS011;14521;48.148;-1.656;2023-07-31T09:45:29;2.63;;;1.30;;
26963;SDS011;14521;48.148;-1.656;2023-07-31T09:49:12;3.50;;;1.42;;
26963;SDS011;14521;48.148;-1.656;2023-07-31T09:52:36;2.05;;;1.33;;
26963;SDS011;14521;48.148;-1.656;2023-07-31T09:56:00;3.78;;;2.35;;
26963;SDS011;14521;48.148;-1.656;2023-07-31T09:59:23;8.05;;;2.60;;
26963;SDS011;14521;48.148;-1.656;2023-07-31T10:02:46;4.68;;;2.88;;
26963;SDS011;14521;48.148;-1.656;2023-07-31T10:06:09;4.22;;;2.83;;
26963;SDS011;14521;48.148;-1.656;2023-07-31T10:09:32;5.07;;;2.60;;
26963;SDS011;14521;48.148;-1.656;2023-07-31T10:12:56;5.70;;;2.47;;
26963;SDS011;14521;48.148;-1.656;2023-07-31T10:16:19;8.75;;;2.28;;
26963;SDS011;14521;48.148;-1.656;2023-07-31T10:19:43;4.85;;;2.22;;
26963;SDS011;14521;48.148;-1.656;2023-07-31T10:23:05;3.40;;;2.17;;
26963;SDS011;14521;48.148;-1.656;2023-07-31T10:26:28;3.95;;;2.35;;
26963;SDS011;14521;48.148;-1.656;2023-07-31T10:33:19;10.75;;;2.88;;
26963;SDS011;14521;48.148;-1.656;2023-07-31T10:36:42;4.32;;;2.17;;
26963;SDS011;14521;48.148;-1.656;2023-07-31T10:40:16;4.00;;;2.28;;
26963;SDS011;14521;48.148;-1.656;2023-07-31T10:43:47;2.85;;;1.77;;
26963;SDS011;14521;48.148;-1.656;2023-07-31T10:50:38;4.53;;;2.13;;
26963;SDS011;14521;48.148;-1.656;2023-07-31T10:54:12;4.15;;;2.08;;
26963;SDS011;14521;48.148;-1.656;2023-07-31T10:57:36;4.13;;;2.10;;
26963;SDS011;14521;48.148;-1.656;2023-07-31T11:00:59;3.13;;;2.15;;
26963;SDS011;14521;48.148;-1.656;2023-07-31T11:04:25;3.80;;;2.45;;
26963;SDS011;14521;48.148;-1.656;2023-07-31T11:07:48;7.70;;;2.33;;
26963;SDS011;14521;48.148;-1.656;2023-07-31T11:11:12;3.92;;;2.15;;
26963;SDS011;14521;48.148;-1.656;2023-07-31T11:14:37;3.40;;;1.83;;
26963;SDS011;14521;48.148;-1.656;2023-07-31T11:18:00;3.95;;;2.03;;
26963;SDS011;14521;48.148;-1.656;2023-07-31T11:21:25;6.03;;;1.80;;
26963;SDS011;14521;48.148;-1.656;2023-07-31T11:24:48;6.78;;;2.10;;
26963;SDS011;14521;48.148;-1.656;2023-07-31T11:28:13;3.35;;;2.05;;
26963;SDS011;14521;48.148;-1.656;2023-07-31T11:31:42;4.72;;;1.83;;
26963;SDS011;14521;48.148;-1.656;2023-07-31T11:35:05;2.75;;;1.67;;
26963;SDS011;14521;48.148;-1.656;2023-07-31T11:38:30;3.97;;;2.00;;
26963;SDS011;14521;48.148;-1.656;2023-07-31T11:41:58;3.08;;;2.00;;
26963;SDS011;14521;48.148;-1.656;2023-07-31T11:45:23;4.70;;;1.88;;
26963;SDS011;14521;48.148;-1.656;2023-07-31T11:48:48;4.55;;;1.80;;
26963;SDS011;14521;48.148;-1.656;2023-07-31T11:52:11;2.05;;;1.52;;
26963;SDS011;14521;48.148;-1.656;2023-07-31T11:55:34;3.92;;;2.15;;
26963;SDS011;14521;48.148;-1.656;2023-07-31T11:58:58;5.05;;;2.05;;
26963;SDS011;14521;48.148;-1.656;2023-07-31T12:02:24;1.88;;;1.60;;
26963;SDS011;14521;48.148;-1.656;2023-07-31T12:05:47;3.30;;;1.80;;
26963;SDS011;14521;48.148;-1.656;2023-07-31T12:09:10;10.82;;;1.92;;
26963;SDS011;14521;48.148;-1.656;2023-07-31T12:12:32;2.97;;;1.70;;
26963;SDS011;14521;48.148;-1.656;2023-07-31T12:15:55;4.43;;;1.60;;
26963;SDS011;14521;48.148;-1.656;2023-07-31T12:19:19;3.45;;;1.77;;
26963;SDS011;14521;48.148;-1.656;2023-07-31T12:22:41;2.28;;;1.73;;
26963;SDS011;14521;48.148;-1.656;2023-07-31T12:26:10;2.47;;;1.85;;
26963;SDS011;14521;48.148;-1.656;2023-07-31T12:29:38;2.92;;;1.88;;
26963;SDS011;14521;48.148;-1.656;2023-07-31T12:36:28;3.97;;;2.22;;
26963;SDS011;14521;48.148;-1.656;2023-07-31T12:39:53;2.90;;;2.35;;
26963;SDS011;14521;48.148;-1.656;2023-07-31T12:43:15;4.07;;;2.08;;
26963;SDS011;14521;48.148;-1.656;2023-07-31T12:46:38;2.65;;;1.80;;
26963;SDS011;14521;48.148;-1.656;2023-07-31T12:50:00;3.80;;;1.48;;
26963;SDS011;14521;48.148;-1.656;2023-07-31T12:53:23;3.28;;;1.88;;
26963;SDS011;14521;48.148;-1.656;2023-07-31T12:56:46;2.03;;;1.40;;
26963;SDS011;14521;48.148;-1.656;2023-07-31T13:00:08;3.35;;;1.63;;
26963;SDS011;14521;48.148;-1.656;2023-07-31T13:03:31;2.33;;;1.80;;
26963;SDS011;14521;48.148;-1.656;2023-07-31T13:06:53;2.50;;;1.60;;
26963;SDS011;14521;48.148;-1.656;2023-07-31T13:10:16;2.95;;;1.73;;
26963;SDS011;14521;48.148;-1.656;2023-07-31T13:13:38;7.00;;;1.70;;
26963;SDS011;14521;48.148;-1.656;2023-07-31T13:17:01;2.83;;;1.55;;
26963;SDS011;14521;48.148;-1.656;2023-07-31T13:20:23;2.33;;;1.33;;
26963;SDS011;14521;48.148;-1.656;2023-07-31T13:23:45;1.58;;;1.30;;
26963;SDS011;14521;48.148;-1.656;2023-07-31T13:27:08;7.03;;;1.20;;
26963;SDS011;14521;48.148;-1.656;2023-07-31T13:30:30;2.50;;;1.30;;
26963;SDS011;14521;48.148;-1.656;2023-07-31T13:33:52;5.85;;;1.17;;
26963;SDS011;14521;48.148;-1.656;2023-07-31T13:37:15;1.80;;;1.10;;
26963;SDS011;14521;48.148;-1.656;2023-07-31T13:40:37;1.80;;;1.48;;
26963;SDS011;14521;48.148;-1.656;2023-07-31T13:43:39;1.30;;;1.10;;
26963;SDS011;14521;48.148;-1.656;2023-07-31T13:47:01;1.50;;;1.17;;
26963;SDS011;14521;48.148;-1.656;2023-07-31T13:50:23;2.95;;;1.27;;
26963;SDS011;14521;48.148;-1.656;2023-07-31T13:53:46;2.05;;;1.60;;
26963;SDS011;14521;48.148;-1.656;2023-07-31T13:57:09;2.13;;;1.23;;
26963;SDS011;14521;48.148;-1.656;2023-07-31T14:00:31;4.00;;;1.10;;
26963;SDS011;14521;48.148;-1.656;2023-07-31T14:03:53;1.15;;;1.00;;
26963;SDS011;14521;48.148;-1.656;2023-07-31T14:07:16;1.27;;;1.02;;
26963;SDS011;14521;48.148;-1.656;2023-07-31T14:10:39;1.20;;;1.00;;
26963;SDS011;14521;48.148;-1.656;2023-07-31T14:14:01;2.10;;;0.90;;
26963;SDS011;14521;48.148;-1.656;2023-07-31T14:17:24;3.00;;;1.50;;
26963;SDS011;14521;48.148;-1.656;2023-07-31T14:20:47;0.98;;;0.95;;
26963;SDS011;14521;48.148;-1.656;2023-07-31T14:24:09;0.82;;;0.82;;
26963;SDS011;14521;48.148;-1.656;2023-07-31T14:27:31;0.80;;;0.73;;
26963;SDS011;14521;48.148;-1.656;2023-07-31T14:30:53;1.23;;;1.10;;
26963;SDS011;14521;48.148;-1.656;2023-07-31T14:34:16;0.77;;;0.57;;
26963;SDS011;14521;48.148;-1.656;2023-07-31T14:37:43;0.93;;;0.80;;
26963;SDS011;14521;48.148;-1.656;2023-07-31T14:41:06;0.80;;;0.80;;
26963;SDS011;14521;48.148;-1.656;2023-07-31T14:44:29;1.75;;;0.85;;
26963;SDS011;14521;48.148;-1.656;2023-07-31T14:47:51;1.10;;;0.95;;
26963;SDS011;14521;48.148;-1.656;2023-07-31T14:51:13;0.93;;;0.93;;
26963;SDS011;14521;48.148;-1.656;2023-07-31T14:54:36;1.30;;;0.88;;
26963;SDS011;14521;48.148;-1.656;2023-07-31T14:57:58;0.85;;;0.70;;
26963;SDS011;14521;48.148;-1.656;2023-07-31T15:01:20;1.30;;;0.65;;
26963;SDS011;14521;48.148;-1.656;2023-07-31T15:04:43;1.05;;;0.88;;
26963;SDS011;14521;48.148;-1.656;2023-07-31T15:08:05;1.23;;;0.80;;
26963;SDS011;14521;48.148;-1.656;2023-07-31T15:11:27;5.93;;;0.77;;
26963;SDS011;14521;48.148;-1.656;2023-07-31T15:14:49;1.08;;;0.90;;
26963;SDS011;14521;48.148;-1.656;2023-07-31T15:18:13;2.42;;;0.82;;
26963;SDS011;14521;48.148;-1.656;2023-07-31T15:21:36;2.95;;;0.90;;
26963;SDS011;14521;48.148;-1.656;2023-07-31T15:24:59;3.40;;;0.77;;
26963;SDS011;14521;48.148;-1.656;2023-07-31T15:28:21;8.57;;;0.73;;
26963;SDS011;14521;48.148;-1.656;2023-07-31T15:31:44;1.92;;;1.05;;
26963;SDS011;14521;48.148;-1.656;2023-07-31T15:35:07;2.60;;;0.85;;
26963;SDS011;14521;48.148;-1.656;2023-07-31T15:38:30;1.35;;;0.82;;
26963;SDS011;14521;48.148;-1.656;2023-07-31T15:41:52;0.93;;;0.60;;
26963;SDS011;14521;48.148;-1.656;2023-07-31T15:45:14;2.25;;;0.82;;
26963;SDS011;14521;48.148;-1.656;2023-07-31T15:48:37;1.58;;;0.90;;
26963;SDS011;14521;48.148;-1.656;2023-07-31T15:51:59;1.08;;;0.80;;
26963;SDS011;14521;48.148;-1.656;2023-07-31T15:55:21;6.32;;;0.80;;
26963;SDS011;14521;48.148;-1.656;2023-07-31T15:58:44;2.92;;;0.77;;
26963;SDS011;14521;48.148;-1.656;2023-07-31T16:02:06;7.82;;;0.70;;
26963;SDS011;14521;48.148;-1.656;2023-07-31T16:05:32;1.30;;;0.73;;
26963;SDS011;14521;48.148;-1.656;2023-07-31T16:08:54;1.60;;;0.50;;
26963;SDS011;14521;48.148;-1.656;2023-07-31T16:12:17;4.72;;;0.73;;
26963;SDS011;14521;48.148;-1.656;2023-07-31T16:15:39;2.10;;;0.45;;
26963;SDS011;14521;48.148;-1.656;2023-07-31T16:19:02;0.57;;;0.57;;
26963;SDS011;14521;48.148;-1.656;2023-07-31T16:22:25;7.85;;;2.30;;
26963;SDS011;14521;48.148;-1.656;2023-07-31T16:25:47;5.80;;;4.07;;
26963;SDS011;14521;48.148;-1.656;2023-07-31T16:28:50;15.48;;;9.00;;
26963;SDS011;14521;48.148;-1.656;2023-07-31T16:31:52;17.73;;;9.98;;
26963;SDS011;14521;48.148;-1.656;2023-07-31T16:34:59;24.40;;;16.00;;
26963;SDS011;14521;48.148;-1.656;2023-07-31T16:38:01;16.92;;;12.30;;
26963;SDS011;14521;48.148;-1.656;2023-07-31T16:41:03;21.23;;;13.73;;
26963;SDS011;14521;48.148;-1.656;2023-07-31T16:44:05;20.00;;;13.50;;
26963;SDS011;14521;48.148;-1.656;2023-07-31T16:47:07;23.10;;;13.27;;
26963;SDS011;14521;48.148;-1.656;2023-07-31T16:50:09;23.17;;;11.82;;
26963;SDS011;14521;48.148;-1.656;2023-07-31T16:53:11;15.15;;;12.00;;
26963;SDS011;14521;48.148;-1.656;2023-07-31T16:56:14;18.83;;;11.80;;
26963;SDS011;14521;48.148;-1.656;2023-07-31T16:59:17;17.75;;;12.63;;
26963;SDS011;14521;48.148;-1.656;2023-07-31T17:02:20;15.70;;;10.63;;
26963;SDS011;14521;48.148;-1.656;2023-07-31T17:05:22;22.48;;;13.57;;
26963;SDS011;14521;48.148;-1.656;2023-07-31T17:08:25;19.25;;;12.05;;
26963;SDS011;14521;48.148;-1.656;2023-07-31T17:11:27;17.55;;;12.15;;
26963;SDS011;14521;48.148;-1.656;2023-07-31T17:14:29;15.20;;;11.38;;
26963;SDS011;14521;48.148;-1.656;2023-07-31T17:17:31;13.63;;;11.10;;
26963;SDS011;14521;48.148;-1.656;2023-07-31T17:20:34;16.08;;;9.27;;
26963;SDS011;14521;48.148;-1.656;2023-07-31T17:23:55;18.67;;;9.80;;
26963;SDS011;14521;48.148;-1.656;2023-07-31T17:27:17;15.88;;;8.25;;
26963;SDS011;14521;48.148;-1.656;2023-07-31T17:30:40;13.60;;;10.00;;
26963;SDS011;14521;48.148;-1.656;2023-07-31T17:34:02;17.08;;;8.18;;
26963;SDS011;14521;48.148;-1.656;2023-07-31T17:37:25;12.50;;;8.13;;
26963;SDS011;14521;48.148;-1.656;2023-07-31T17:40:50;10.23;;;7.82;;
26963;SDS011;14521;48.148;-1.656;2023-07-31T17:47:35;12.90;;;8.82;;
26963;SDS011;14521;48.148;-1.656;2023-07-31T17:50:57;23.00;;;13.02;;
26963;SDS011;14521;48.148;-1.656;2023-07-31T17:54:19;20.08;;;11.52;;
26963;SDS011;14521;48.148;-1.656;2023-07-31T17:57:43;22.73;;;13.52;;
26963;SDS011;14521;48.148;-1.656;2023-07-31T18:01:06;18.67;;;10.65;;
26963;SDS011;14521;48.148;-1.656;2023-07-31T18:04:28;25.08;;;11.52;;
26963;SDS011;14521;48.148;-1.656;2023-07-31T18:07:50;14.30;;;8.82;;
26963;SDS011;14521;48.148;-1.656;2023-07-31T18:11:13;10.82;;;6.93;;
26963;SDS011;14521;48.148;-1.656;2023-07-31T18:14:35;14.93;;;7.65;;
26963;SDS011;14521;48.148;-1.656;2023-07-31T18:17:59;13.25;;;7.47;;
26963;SDS011;14521;48.148;-1.656;2023-07-31T18:21:22;14.02;;;6.95;;
26963;SDS011;14521;48.148;-1.656;2023-07-31T18:24:44;13.82;;;7.47;;
26963;SDS011;14521;48.148;-1.656;2023-07-31T18:28:06;9.98;;;6.93;;
26963;SDS011;14521;48.148;-1.656;2023-07-31T18:31:28;13.13;;;6.35;;
26963;SDS011;14521;48.148;-1.656;2023-07-31T18:34:51;10.57;;;5.93;;
26963;SDS011;14521;48.148;-1.656;2023-07-31T18:38:13;9.18;;;5.63;;
26963;SDS011;14521;48.148;-1.656;2023-07-31T18:41:35;8.80;;;5.70;;
26963;SDS011;14521;48.148;-1.656;2023-07-31T18:44:58;6.30;;;4.85;;
26963;SDS011;14521;48.148;-1.656;2023-07-31T18:48:20;7.70;;;5.20;;
26963;SDS011;14521;48.148;-1.656;2023-07-31T18:51:42;5.10;;;2.95;;
26963;SDS011;14521;48.148;-1.656;2023-07-31T18:55:04;7.18;;;5.10;;
26963;SDS011;14521;48.148;-1.656;2023-07-31T18:58:27;5.75;;;5.03;;
26963;SDS011;14521;48.148;-1.656;2023-07-31T19:01:49;5.53;;;5.03;;
26963;SDS011;14521;48.148;-1.656;2023-07-31T19:05:12;6.82;;;5.45;;
26963;SDS011;14521;48.148;-1.656;2023-07-31T19:08:34;6.07;;;4.85;;
26963;SDS011;14521;48.148;-1.656;2023-07-31T19:11:56;11.85;;;4.43;;
26963;SDS011;14521;48.148;-1.656;2023-07-31T19:15:19;5.53;;;4.22;;
26963;SDS011;14521;48.148;-1.656;2023-07-31T19:18:41;6.32;;;4.20;;
26963;SDS011;14521;48.148;-1.656;2023-07-31T19:22:04;13.60;;;4.22;;
26963;SDS011;14521;48.148;-1.656;2023-07-31T19:25:27;5.80;;;3.50;;
26963;SDS011;14521;48.148;-1.656;2023-07-31T19:28:49;7.35;;;3.33;;
26963;SDS011;14521;48.148;-1.656;2023-07-31T19:32:11;4.10;;;3.38;;
26963;SDS011;14521;48.148;-1.656;2023-07-31T19:35:36;3.75;;;3.28;;
26963;SDS011;14521;48.148;-1.656;2023-07-31T19:38:58;6.43;;;3.28;;
26963;SDS011;14521;48.148;-1.656;2023-07-31T19:42:20;7.80;;;3.45;;
26963;SDS011;14521;48.148;-1.656;2023-07-31T19:45:43;6.28;;;3.00;;
26963;SDS011;14521;48.148;-1.656;2023-07-31T19:49:05;7.97;;;3.25;;
26963;SDS011;14521;48.148;-1.656;2023-07-31T19:52:27;3.33;;;2.92;;
26963;SDS011;14521;48.148;-1.656;2023-07-31T19:55:50;3.35;;;2.63;;
26963;SDS011;14521;48.148;-1.656;2023-07-31T19:59:12;3.60;;;2.85;;
26963;SDS011;14521;48.148;-1.656;2023-07-31T20:02:34;3.63;;;3.10;;
26963;SDS011;14521;48.148;-1.656;2023-07-31T20:05:56;6.30;;;2.67;;
26963;SDS011;14521;48.148;-1.656;2023-07-31T20:09:19;2.97;;;2.33;;
26963;SDS011;14521;48.148;-1.656;2023-07-31T20:12:43;6.13;;;2.33;;
26963;SDS011;14521;48.148;-1.656;2023-07-31T20:16:05;4.30;;;2.28;;